sensor_id;sensor_type;location;lat;lon;timestamp;P1;durP1;ratioP1;P2;durP2;ratioP2
40501;SDS011;29631;49.168;9.848;2023-10-09T00:02:11;7.60;;;3.80;;
40501;SDS011;29631;49.168;9.848;2023-10-09T00:04:39;5.38;;;3.75;;
40501;SDS011;29631;49.168;9.848;2023-10-09T00:07:06;6.82;;;4.40;;
40501;SDS011;29631;49.168;9.848;2023-10-09T00:09:35;6.38;;;4.60;;
40501;SDS011;29631;49.168;9.848;2023-10-09T00:12:22;4.38;;;3.97;;
40501;SDS011;29631;49.168;9.848;2023-10-09T00:14:48;5.97;;;4.15;;
40501;SDS011;29631;49.168;9.848;2023-10-09T00:17:18;5.72;;;4.32;;
40501;SDS011;29631;49.168;9.848;2023-10-09T00:19:44;4.55;;;3.95;;
40501;SDS011;29631;49.168;9.848;2023-10-09T00:22:24;5.82;;;3.80;;
40501;SDS011;29631;49.168;9.848;2023-10-09T00:24:54;6.25;;;4.28;;
40501;SDS011;29631;49.168;9.848;2023-10-09T00:27:40;9.77;;;4.18;;
40501;SDS011;29631;49.168;9.848;2023-10-09T00:30:11;5.22;;;4.07;;
40501;SDS011;29631;49.168;9.848;2023-10-09T00:32:42;7.50;;;4.10;;
40501;SDS011;29631;49.168;9.848;2023-10-09T00:35:26;5.38;;;4.00;;
40501;SDS011;29631;49.168;9.848;2023-10-09T00:38:01;7.40;;;4.13;;
40501;SDS011;29631;49.168;9.848;2023-10-09T00:40:39;5.25;;;3.83;;
40501;SDS011;29631;49.168;9.848;2023-10-09T00:43:12;6.70;;;3.90;;
40501;SDS011;29631;49.168;9.848;2023-10-09T00:45:39;7.10;;;3.92;;
40501;SDS011;29631;49.168;9.848;2023-10-09T00:48:09;9.10;;;3.97;;
40501;SDS011;29631;49.168;9.848;2023-10-09T00:50:35;7.70;;;4.78;;
40501;SDS011;29631;49.168;9.848;2023-10-09T00:53:01;7.80;;;4.38;;
40501;SDS011;29631;49.168;9.848;2023-10-09T00:55:36;8.52;;;4.45;;
40501;SDS011;29631;49.168;9.848;2023-10-09T00:58:08;7.35;;;3.97;;
40501;SDS011;29631;49.168;9.848;2023-10-09T01:00:39;4.30;;;3.67;;
40501;SDS011;29631;49.168;9.848;2023-10-09T01:03:08;10.63;;;4.38;;
40501;SDS011;29631;49.168;9.848;2023-10-09T01:05:44;5.38;;;4.10;;
40501;SDS011;29631;49.168;9.848;2023-10-09T01:08:34;7.55;;;3.47;;
40501;SDS011;29631;49.168;9.848;2023-10-09T01:11:13;7.57;;;3.97;;
40501;SDS011;29631;49.168;9.848;2023-10-09T01:13:44;6.63;;;4.00;;
40501;SDS011;29631;49.168;9.848;2023-10-09T01:16:11;7.20;;;4.22;;
40501;SDS011;29631;49.168;9.848;2023-10-09T01:18:42;5.65;;;4.15;;
40501;SDS011;29631;49.168;9.848;2023-10-09T01:21:21;8.30;;;4.35;;
40501;SDS011;29631;49.168;9.848;2023-10-09T01:23:51;6.53;;;3.85;;
40501;SDS011;29631;49.168;9.848;2023-10-09T01:26:31;5.82;;;3.72;;
40501;SDS011;29631;49.168;9.848;2023-10-09T01:29:09;5.75;;;4.07;;
40501;SDS011;29631;49.168;9.848;2023-10-09T01:31:49;7.70;;;4.30;;
40501;SDS011;29631;49.168;9.848;2023-10-09T01:34:25;6.63;;;4.45;;
40501;SDS011;29631;49.168;9.848;2023-10-09T01:37:08;6.35;;;4.40;;
40501;SDS011;29631;49.168;9.848;2023-10-09T01:39:53;7.65;;;4.15;;
40501;SDS011;29631;49.168;9.848;2023-10-09T01:42:24;7.22;;;3.80;;
40501;SDS011;29631;49.168;9.848;2023-10-09T01:45:11;5.50;;;4.18;;
40501;SDS011;29631;49.168;9.848;2023-10-09T01:47:38;7.38;;;4.15;;
40501;SDS011;29631;49.168;9.848;2023-10-09T01:50:05;6.28;;;4.03;;
40501;SDS011;29631;49.168;9.848;2023-10-09T01:52:37;5.75;;;3.40;;
40501;SDS011;29631;49.168;9.848;2023-10-09T01:55:03;7.88;;;4.05;;
40501;SDS011;29631;49.168;9.848;2023-10-09T01:57:50;8.40;;;3.60;;
40501;SDS011;29631;49.168;9.848;2023-10-09T02:00:16;5.97;;;4.00;;
40501;SDS011;29631;49.168;9.848;2023-10-09T02:02:48;6.72;;;4.07;;
40501;SDS011;29631;49.168;9.848;2023-10-09T02:05:15;6.50;;;4.20;;
40501;SDS011;29631;49.168;9.848;2023-10-09T02:07:44;4.88;;;3.63;;
40501;SDS011;29631;49.168;9.848;2023-10-09T02:10:14;7.95;;;3.97;;
40501;SDS011;29631;49.168;9.848;2023-10-09T02:12:49;8.63;;;3.95;;
40501;SDS011;29631;49.168;9.848;2023-10-09T02:15:19;7.22;;;4.47;;
40501;SDS011;29631;49.168;9.848;2023-10-09T02:18:05;11.93;;;4.20;;
40501;SDS011;29631;49.168;9.848;2023-10-09T02:20:42;8.63;;;3.70;;
40501;SDS011;29631;49.168;9.848;2023-10-09T02:23:25;7.63;;;3.97;;
40501;SDS011;29631;49.168;9.848;2023-10-09T02:26:03;5.82;;;4.22;;
40501;SDS011;29631;49.168;9.848;2023-10-09T02:28:31;6.68;;;4.10;;
40501;SDS011;29631;49.168;9.848;2023-10-09T02:31:00;7.05;;;4.45;;
40501;SDS011;29631;49.168;9.848;2023-10-09T02:33:36;5.53;;;4.30;;
40501;SDS011;29631;49.168;9.848;2023-10-09T02:36:04;6.78;;;4.70;;
40501;SDS011;29631;49.168;9.848;2023-10-09T02:38:38;5.88;;;3.67;;
40501;SDS011;29631;49.168;9.848;2023-10-09T02:41:07;6.47;;;3.95;;
40501;SDS011;29631;49.168;9.848;2023-10-09T02:43:36;7.15;;;4.05;;
40501;SDS011;29631;49.168;9.848;2023-10-09T02:46:15;7.35;;;3.58;;
40501;SDS011;29631;49.168;9.848;2023-10-09T02:48:44;5.03;;;4.00;;
40501;SDS011;29631;49.168;9.848;2023-10-09T02:51:21;7.55;;;3.90;;
40501;SDS011;29631;49.168;9.848;2023-10-09T02:53:51;7.40;;;4.15;;
40501;SDS011;29631;49.168;9.848;2023-10-09T02:56:26;8.00;;;4.18;;
40501;SDS011;29631;49.168;9.848;2023-10-09T02:59:03;5.65;;;4.47;;
40501;SDS011;29631;49.168;9.848;2023-10-09T03:01:36;7.53;;;4.13;;
40501;SDS011;29631;49.168;9.848;2023-10-09T03:04:04;5.15;;;3.75;;
40501;SDS011;29631;49.168;9.848;2023-10-09T03:06:35;8.80;;;4.57;;
40501;SDS011;29631;49.168;9.848;2023-10-09T03:09:08;12.30;;;4.13;;
40501;SDS011;29631;49.168;9.848;2023-10-09T03:11:51;6.95;;;3.88;;
40501;SDS011;29631;49.168;9.848;2023-10-09T03:14:26;4.85;;;4.22;;
40501;SDS011;29631;49.168;9.848;2023-10-09T03:17:06;6.53;;;4.03;;
40501;SDS011;29631;49.168;9.848;2023-10-09T03:19:36;11.52;;;4.38;;
40501;SDS011;29631;49.168;9.848;2023-10-09T03:22:05;6.43;;;4.65;;
40501;SDS011;29631;49.168;9.848;2023-10-09T03:24:35;6.25;;;4.20;;
40501;SDS011;29631;49.168;9.848;2023-10-09T03:27:02;9.95;;;3.80;;
40501;SDS011;29631;49.168;9.848;2023-10-09T03:29:29;9.45;;;4.22;;
40501;SDS011;29631;49.168;9.848;2023-10-09T03:31:54;8.10;;;4.55;;
40501;SDS011;29631;49.168;9.848;2023-10-09T03:34:21;6.28;;;3.75;;
40501;SDS011;29631;49.168;9.848;2023-10-09T03:36:50;6.57;;;4.13;;
40501;SDS011;29631;49.168;9.848;2023-10-09T03:39:28;8.40;;;4.72;;
40501;SDS011;29631;49.168;9.848;2023-10-09T03:42:12;5.38;;;3.63;;
40501;SDS011;29631;49.168;9.848;2023-10-09T03:44:44;7.22;;;3.70;;
40501;SDS011;29631;49.168;9.848;2023-10-09T03:47:17;7.20;;;4.25;;
40501;SDS011;29631;49.168;9.848;2023-10-09T03:49:47;5.68;;;3.88;;
40501;SDS011;29631;49.168;9.848;2023-10-09T03:52:16;8.40;;;4.65;;
40501;SDS011;29631;49.168;9.848;2023-10-09T03:54:43;6.88;;;3.95;;
40501;SDS011;29631;49.168;9.848;2023-10-09T03:57:11;7.25;;;4.13;;
40501;SDS011;29631;49.168;9.848;2023-10-09T03:59:43;10.38;;;4.45;;
40501;SDS011;29631;49.168;9.848;2023-10-09T04:02:12;6.70;;;3.70;;
40501;SDS011;29631;49.168;9.848;2023-10-09T04:04:39;8.68;;;4.15;;
40501;SDS011;29631;49.168;9.848;2023-10-09T04:07:10;9.18;;;3.70;;
40501;SDS011;29631;49.168;9.848;2023-10-09T04:09:36;7.95;;;4.40;;
40501;SDS011;29631;49.168;9.848;2023-10-09T04:12:05;5.65;;;3.63;;
40501;SDS011;29631;49.168;9.848;2023-10-09T04:14:37;6.53;;;4.25;;
40501;SDS011;29631;49.168;9.848;2023-10-09T04:17:12;7.40;;;4.43;;
40501;SDS011;29631;49.168;9.848;2023-10-09T04:19:47;6.20;;;4.20;;
40501;SDS011;29631;49.168;9.848;2023-10-09T04:22:14;8.63;;;4.47;;
40501;SDS011;29631;49.168;9.848;2023-10-09T04:24:52;6.00;;;4.18;;
40501;SDS011;29631;49.168;9.848;2023-10-09T04:27:18;7.22;;;4.07;;
40501;SDS011;29631;49.168;9.848;2023-10-09T04:29:51;7.68;;;4.07;;
40501;SDS011;29631;49.168;9.848;2023-10-09T04:32:21;10.32;;;4.25;;
40501;SDS011;29631;49.168;9.848;2023-10-09T04:34:50;9.43;;;4.60;;
40501;SDS011;29631;49.168;9.848;2023-10-09T04:37:35;7.60;;;4.03;;
40501;SDS011;29631;49.168;9.848;2023-10-09T04:40:04;9.23;;;3.92;;
40501;SDS011;29631;49.168;9.848;2023-10-09T04:42:37;5.88;;;4.10;;
40501;SDS011;29631;49.168;9.848;2023-10-09T04:45:06;7.60;;;3.70;;
40501;SDS011;29631;49.168;9.848;2023-10-09T04:47:33;8.00;;;4.28;;
40501;SDS011;29631;49.168;9.848;2023-10-09T04:52:34;8.57;;;4.43;;
40501;SDS011;29631;49.168;9.848;2023-10-09T04:55:00;7.70;;;4.13;;
40501;SDS011;29631;49.168;9.848;2023-10-09T04:57:36;6.18;;;3.83;;
40501;SDS011;29631;49.168;9.848;2023-10-09T05:00:07;6.75;;;3.55;;
40501;SDS011;29631;49.168;9.848;2023-10-09T05:02:51;5.80;;;3.88;;
40501;SDS011;29631;49.168;9.848;2023-10-09T05:05:36;10.02;;;4.65;;
40501;SDS011;29631;49.168;9.848;2023-10-09T05:08:11;4.80;;;4.05;;
40501;SDS011;29631;49.168;9.848;2023-10-09T05:10:49;6.88;;;4.13;;
40501;SDS011;29631;49.168;9.848;2023-10-09T05:13:31;9.70;;;4.15;;
40501;SDS011;29631;49.168;9.848;2023-10-09T05:18:50;8.15;;;4.25;;
40501;SDS011;29631;49.168;9.848;2023-10-09T05:21:34;9.32;;;4.30;;
40501;SDS011;29631;49.168;9.848;2023-10-09T05:24:10;6.30;;;4.38;;
40501;SDS011;29631;49.168;9.848;2023-10-09T05:26:37;5.68;;;4.00;;
40501;SDS011;29631;49.168;9.848;2023-10-09T05:29:13;8.60;;;4.40;;
40501;SDS011;29631;49.168;9.848;2023-10-09T05:31:57;7.82;;;3.50;;
40501;SDS011;29631;49.168;9.848;2023-10-09T05:34:31;11.48;;;4.45;;
40501;SDS011;29631;49.168;9.848;2023-10-09T05:37:20;8.48;;;3.60;;
40501;SDS011;29631;49.168;9.848;2023-10-09T05:39:57;8.02;;;3.85;;
40501;SDS011;29631;49.168;9.848;2023-10-09T05:42:25;13.02;;;3.78;;
40501;SDS011;29631;49.168;9.848;2023-10-09T05:45:13;9.05;;;4.25;;
40501;SDS011;29631;49.168;9.848;2023-10-09T05:48:00;5.88;;;4.05;;
40501;SDS011;29631;49.168;9.848;2023-10-09T05:50:51;11.18;;;4.43;;
40501;SDS011;29631;49.168;9.848;2023-10-09T05:53:46;5.78;;;3.85;;
40501;SDS011;29631;49.168;9.848;2023-10-09T05:56:12;8.93;;;3.95;;
40501;SDS011;29631;49.168;9.848;2023-10-09T05:58:56;7.45;;;3.83;;
40501;SDS011;29631;49.168;9.848;2023-10-09T06:01:41;6.18;;;3.83;;
40501;SDS011;29631;49.168;9.848;2023-10-09T06:04:22;7.88;;;3.75;;
40501;SDS011;29631;49.168;9.848;2023-10-09T06:06:59;6.25;;;4.07;;
40501;SDS011;29631;49.168;9.848;2023-10-09T06:09:36;9.77;;;4.50;;
40501;SDS011;29631;49.168;9.848;2023-10-09T06:12:21;8.55;;;4.43;;
40501;SDS011;29631;49.168;9.848;2023-10-09T06:15:14;7.53;;;4.13;;
40501;SDS011;29631;49.168;9.848;2023-10-09T06:17:45;7.43;;;4.85;;
40501;SDS011;29631;49.168;9.848;2023-10-09T06:20:17;10.95;;;4.28;;
40501;SDS011;29631;49.168;9.848;2023-10-09T06:23:02;8.52;;;4.32;;
40501;SDS011;29631;49.168;9.848;2023-10-09T06:25:41;7.90;;;4.22;;
40501;SDS011;29631;49.168;9.848;2023-10-09T06:28:27;7.90;;;4.50;;
40501;SDS011;29631;49.168;9.848;2023-10-09T06:30:59;6.13;;;4.25;;
40501;SDS011;29631;49.168;9.848;2023-10-09T06:33:44;10.00;;;4.32;;
40501;SDS011;29631;49.168;9.848;2023-10-09T06:36:30;4.95;;;3.80;;
40501;SDS011;29631;49.168;9.848;2023-10-09T06:38:56;5.90;;;4.20;;
40501;SDS011;29631;49.168;9.848;2023-10-09T06:41:48;8.50;;;4.10;;
40501;SDS011;29631;49.168;9.848;2023-10-09T06:44:33;8.63;;;4.70;;
40501;SDS011;29631;49.168;9.848;2023-10-09T06:47:17;7.65;;;4.70;;
40501;SDS011;29631;49.168;9.848;2023-10-09T06:49:43;8.63;;;4.07;;
40501;SDS011;29631;49.168;9.848;2023-10-09T06:52:29;6.10;;;3.88;;
40501;SDS011;29631;49.168;9.848;2023-10-09T06:55:15;5.45;;;3.65;;
40501;SDS011;29631;49.168;9.848;2023-10-09T06:57:57;7.10;;;3.78;;
40501;SDS011;29631;49.168;9.848;2023-10-09T07:00:26;5.03;;;3.28;;
40501;SDS011;29631;49.168;9.848;2023-10-09T07:03:12;8.43;;;3.78;;
40501;SDS011;29631;49.168;9.848;2023-10-09T07:05:38;10.95;;;4.07;;
40501;SDS011;29631;49.168;9.848;2023-10-09T07:08:22;6.80;;;3.97;;
40501;SDS011;29631;49.168;9.848;2023-10-09T07:10:57;9.13;;;4.30;;
40501;SDS011;29631;49.168;9.848;2023-10-09T07:13:44;11.65;;;4.00;;
40501;SDS011;29631;49.168;9.848;2023-10-09T07:16:19;8.45;;;4.25;;
40501;SDS011;29631;49.168;9.848;2023-10-09T07:18:49;9.40;;;4.07;;
40501;SDS011;29631;49.168;9.848;2023-10-09T07:21:15;6.82;;;3.90;;
40501;SDS011;29631;49.168;9.848;2023-10-09T07:23:43;9.68;;;4.30;;
40501;SDS011;29631;49.168;9.848;2023-10-09T07:26:14;9.95;;;3.92;;
40501;SDS011;29631;49.168;9.848;2023-10-09T07:28:43;9.02;;;4.13;;
40501;SDS011;29631;49.168;9.848;2023-10-09T07:31:16;10.15;;;4.53;;
40501;SDS011;29631;49.168;9.848;2023-10-09T07:33:49;13.02;;;4.13;;
40501;SDS011;29631;49.168;9.848;2023-10-09T07:36:23;9.05;;;3.70;;
40501;SDS011;29631;49.168;9.848;2023-10-09T07:38:59;7.70;;;4.05;;
40501;SDS011;29631;49.168;9.848;2023-10-09T07:41:29;9.73;;;4.40;;
40501;SDS011;29631;49.168;9.848;2023-10-09T07:43:56;12.15;;;4.60;;
40501;SDS011;29631;49.168;9.848;2023-10-09T07:46:23;7.90;;;4.35;;
40501;SDS011;29631;49.168;9.848;2023-10-09T07:49:00;8.98;;;3.92;;
40501;SDS011;29631;49.168;9.848;2023-10-09T07:51:34;9.80;;;4.22;;
40501;SDS011;29631;49.168;9.848;2023-10-09T07:54:12;8.48;;;3.60;;
40501;SDS011;29631;49.168;9.848;2023-10-09T07:56:56;7.88;;;3.70;;
40501;SDS011;29631;49.168;9.848;2023-10-09T07:59:33;12.07;;;3.97;;
40501;SDS011;29631;49.168;9.848;2023-10-09T08:02:05;10.00;;;4.50;;
40501;SDS011;29631;49.168;9.848;2023-10-09T08:04:38;11.23;;;4.60;;
40501;SDS011;29631;49.168;9.848;2023-10-09T08:07:15;9.30;;;4.47;;
40501;SDS011;29631;49.168;9.848;2023-10-09T08:10:03;13.98;;;4.75;;
40501;SDS011;29631;49.168;9.848;2023-10-09T08:12:38;8.80;;;4.20;;
40501;SDS011;29631;49.168;9.848;2023-10-09T08:15:14;10.70;;;4.03;;
40501;SDS011;29631;49.168;9.848;2023-10-09T08:20:22;9.32;;;4.35;;
40501;SDS011;29631;49.168;9.848;2023-10-09T08:22:55;9.77;;;3.47;;
40501;SDS011;29631;49.168;9.848;2023-10-09T08:25:21;8.25;;;3.67;;
40501;SDS011;29631;49.168;9.848;2023-10-09T08:27:51;7.50;;;3.85;;
40501;SDS011;29631;49.168;9.848;2023-10-09T08:30:22;7.60;;;3.72;;
40501;SDS011;29631;49.168;9.848;2023-10-09T08:32:50;9.18;;;3.53;;
40501;SDS011;29631;49.168;9.848;2023-10-09T08:35:30;11.20;;;4.43;;
40501;SDS011;29631;49.168;9.848;2023-10-09T08:38:14;7.95;;;3.67;;
40501;SDS011;29631;49.168;9.848;2023-10-09T08:40:48;10.45;;;4.03;;
40501;SDS011;29631;49.168;9.848;2023-10-09T08:43:16;8.10;;;3.92;;
40501;SDS011;29631;49.168;9.848;2023-10-09T08:45:53;10.07;;;3.70;;
40501;SDS011;29631;49.168;9.848;2023-10-09T08:48:27;10.18;;;3.63;;
40501;SDS011;29631;49.168;9.848;2023-10-09T08:50:54;12.75;;;4.43;;
40501;SDS011;29631;49.168;9.848;2023-10-09T08:53:21;9.90;;;3.58;;
40501;SDS011;29631;49.168;9.848;2023-10-09T08:55:49;6.80;;;3.60;;
40501;SDS011;29631;49.168;9.848;2023-10-09T08:58:16;9.95;;;4.20;;
40501;SDS011;29631;49.168;9.848;2023-10-09T09:00:49;10.73;;;4.05;;
40501;SDS011;29631;49.168;9.848;2023-10-09T09:03:17;8.20;;;3.67;;
40501;SDS011;29631;49.168;9.848;2023-10-09T09:05:48;13.88;;;4.32;;
40501;SDS011;29631;49.168;9.848;2023-10-09T09:08:26;7.75;;;3.42;;
40501;SDS011;29631;49.168;9.848;2023-10-09T09:14:24;6.07;;;2.95;;
40501;SDS011;29631;49.168;9.848;2023-10-09T09:16:30;9.15;;;3.65;;
40501;SDS011;29631;49.168;9.848;2023-10-09T09:18:58;10.52;;;3.53;;
40501;SDS011;29631;49.168;9.848;2023-10-09T09:21:31;9.23;;;3.80;;
40501;SDS011;29631;49.168;9.848;2023-10-09T09:24:05;7.63;;;3.58;;
40501;SDS011;29631;49.168;9.848;2023-10-09T09:26:46;9.25;;;3.53;;
40501;SDS011;29631;49.168;9.848;2023-10-09T09:29:24;6.93;;;3.20;;
40501;SDS011;29631;49.168;9.848;2023-10-09T09:32:02;12.95;;;3.53;;
40501;SDS011;29631;49.168;9.848;2023-10-09T09:37:29;7.20;;;3.35;;
40501;SDS011;29631;49.168;9.848;2023-10-09T09:40:15;8.02;;;3.58;;
40501;SDS011;29631;49.168;9.848;2023-10-09T09:42:55;9.75;;;3.67;;
40501;SDS011;29631;49.168;9.848;2023-10-09T09:45:31;6.78;;;4.00;;
40501;SDS011;29631;49.168;9.848;2023-10-09T09:48:02;10.93;;;3.88;;
40501;SDS011;29631;49.168;9.848;2023-10-09T09:50:35;6.78;;;3.58;;
40501;SDS011;29631;49.168;9.848;2023-10-09T09:53:10;8.50;;;3.38;;
40501;SDS011;29631;49.168;9.848;2023-10-09T09:55:44;7.90;;;3.50;;
40501;SDS011;29631;49.168;9.848;2023-10-09T09:58:21;10.75;;;3.80;;
40501;SDS011;29631;49.168;9.848;2023-10-09T10:00:57;9.48;;;3.25;;
40501;SDS011;29631;49.168;9.848;2023-10-09T10:03:40;7.43;;;3.33;;
40501;SDS011;29631;49.168;9.848;2023-10-09T10:06:14;8.15;;;3.55;;
40501;SDS011;29631;49.168;9.848;2023-10-09T10:08:47;8.30;;;3.45;;
40501;SDS011;29631;49.168;9.848;2023-10-09T10:14:11;8.00;;;3.30;;
40501;SDS011;29631;49.168;9.848;2023-10-09T10:22:39;6.00;;;3.42;;
40501;SDS011;29631;49.168;9.848;2023-10-09T10:25:26;7.03;;;3.50;;
40501;SDS011;29631;49.168;9.848;2023-10-09T10:31:07;6.57;;;3.50;;
40501;SDS011;29631;49.168;9.848;2023-10-09T10:36:19;4.80;;;2.80;;
40501;SDS011;29631;49.168;9.848;2023-10-09T10:38:59;9.73;;;3.58;;
40501;SDS011;29631;49.168;9.848;2023-10-09T10:41:30;5.45;;;3.05;;
40501;SDS011;29631;49.168;9.848;2023-10-09T10:44:01;8.02;;;3.55;;
40501;SDS011;29631;49.168;9.848;2023-10-09T10:46:46;5.40;;;3.35;;
40501;SDS011;29631;49.168;9.848;2023-10-09T10:49:16;7.28;;;3.78;;
40501;SDS011;29631;49.168;9.848;2023-10-09T10:51:47;7.22;;;3.70;;
40501;SDS011;29631;49.168;9.848;2023-10-09T10:54:24;8.10;;;3.75;;
40501;SDS011;29631;49.168;9.848;2023-10-09T10:56:59;10.57;;;3.85;;
40501;SDS011;29631;49.168;9.848;2023-10-09T10:59:46;8.70;;;3.85;;
40501;SDS011;29631;49.168;9.848;2023-10-09T11:02:14;6.03;;;3.33;;
40501;SDS011;29631;49.168;9.848;2023-10-09T11:04:41;13.32;;;3.53;;
40501;SDS011;29631;49.168;9.848;2023-10-09T11:07:20;12.95;;;3.90;;
40501;SDS011;29631;49.168;9.848;2023-10-09T11:09:53;7.47;;;3.75;;
40501;SDS011;29631;49.168;9.848;2023-10-09T11:12:30;8.43;;;3.20;;
40501;SDS011;29631;49.168;9.848;2023-10-09T11:15:08;7.55;;;3.65;;
40501;SDS011;29631;49.168;9.848;2023-10-09T11:18:00;10.10;;;3.58;;
40501;SDS011;29631;49.168;9.848;2023-10-09T11:20:33;8.52;;;3.30;;
40501;SDS011;29631;49.168;9.848;2023-10-09T11:23:00;5.78;;;3.60;;
40501;SDS011;29631;49.168;9.848;2023-10-09T11:25:39;12.07;;;3.28;;
40501;SDS011;29631;49.168;9.848;2023-10-09T11:28:31;9.95;;;3.67;;
40501;SDS011;29631;49.168;9.848;2023-10-09T11:31:14;4.95;;;3.10;;
40501;SDS011;29631;49.168;9.848;2023-10-09T11:33:47;8.10;;;3.35;;
40501;SDS011;29631;49.168;9.848;2023-10-09T11:36:14;10.73;;;3.22;;
40501;SDS011;29631;49.168;9.848;2023-10-09T11:38:41;5.72;;;3.13;;
40501;SDS011;29631;49.168;9.848;2023-10-09T11:41:14;6.88;;;3.22;;
40501;SDS011;29631;49.168;9.848;2023-10-09T11:43:50;5.70;;;2.60;;
40501;SDS011;29631;49.168;9.848;2023-10-09T11:46:19;4.50;;;3.58;;
40501;SDS011;29631;49.168;9.848;2023-10-09T11:49:04;4.22;;;3.33;;
40501;SDS011;29631;49.168;9.848;2023-10-09T11:51:46;10.10;;;3.45;;
40501;SDS011;29631;49.168;9.848;2023-10-09T11:54:31;4.70;;;2.92;;
40501;SDS011;29631;49.168;9.848;2023-10-09T11:57:01;6.05;;;3.03;;
40501;SDS011;29631;49.168;9.848;2023-10-09T11:59:28;8.07;;;3.25;;
40501;SDS011;29631;49.168;9.848;2023-10-09T12:02:04;10.50;;;3.63;;
40501;SDS011;29631;49.168;9.848;2023-10-09T12:04:41;5.88;;;3.78;;
40501;SDS011;29631;49.168;9.848;2023-10-09T12:07:08;5.90;;;3.40;;
40501;SDS011;29631;49.168;9.848;2023-10-09T12:09:38;7.10;;;3.85;;
40501;SDS011;29631;49.168;9.848;2023-10-09T12:12:05;6.63;;;3.50;;
40501;SDS011;29631;49.168;9.848;2023-10-09T12:14:36;6.20;;;3.40;;
40501;SDS011;29631;49.168;9.848;2023-10-09T12:17:07;9.85;;;3.45;;
40501;SDS011;29631;49.168;9.848;2023-10-09T12:19:34;8.27;;;3.05;;
40501;SDS011;29631;49.168;9.848;2023-10-09T12:22:01;7.78;;;3.33;;
40501;SDS011;29631;49.168;9.848;2023-10-09T12:24:33;7.80;;;3.53;;
40501;SDS011;29631;49.168;9.848;2023-10-09T12:27:00;6.85;;;3.70;;
40501;SDS011;29631;49.168;9.848;2023-10-09T12:29:26;5.35;;;3.53;;
40501;SDS011;29631;49.168;9.848;2023-10-09T12:31:58;8.63;;;3.80;;
40501;SDS011;29631;49.168;9.848;2023-10-09T12:34:27;6.90;;;3.60;;
40501;SDS011;29631;49.168;9.848;2023-10-09T12:36:53;5.50;;;3.10;;
40501;SDS011;29631;49.168;9.848;2023-10-09T12:39:23;8.88;;;3.70;;
40501;SDS011;29631;49.168;9.848;2023-10-09T12:41:48;8.45;;;4.03;;
40501;SDS011;29631;49.168;9.848;2023-10-09T12:44:18;10.07;;;3.70;;
40501;SDS011;29631;49.168;9.848;2023-10-09T12:46:47;7.65;;;4.30;;
40501;SDS011;29631;49.168;9.848;2023-10-09T12:49:19;6.75;;;3.20;;
40501;SDS011;29631;49.168;9.848;2023-10-09T12:51:51;7.18;;;3.58;;
40501;SDS011;29631;49.168;9.848;2023-10-09T12:54:18;7.85;;;3.72;;
40501;SDS011;29631;49.168;9.848;2023-10-09T12:56:45;8.13;;;3.97;;
40501;SDS011;29631;49.168;9.848;2023-10-09T12:59:13;6.93;;;4.00;;
40501;SDS011;29631;49.168;9.848;2023-10-09T13:01:43;10.30;;;4.07;;
40501;SDS011;29631;49.168;9.848;2023-10-09T13:04:12;7.65;;;3.75;;
40501;SDS011;29631;49.168;9.848;2023-10-09T13:06:45;6.95;;;3.70;;
40501;SDS011;29631;49.168;9.848;2023-10-09T13:09:15;7.93;;;3.67;;
40501;SDS011;29631;49.168;9.848;2023-10-09T13:12:00;7.32;;;3.63;;
40501;SDS011;29631;49.168;9.848;2023-10-09T13:14:31;5.57;;;3.95;;
40501;SDS011;29631;49.168;9.848;2023-10-09T13:16:59;8.40;;;3.60;;
40501;SDS011;29631;49.168;9.848;2023-10-09T13:19:25;8.65;;;3.92;;
40501;SDS011;29631;49.168;9.848;2023-10-09T13:21:51;8.52;;;4.00;;
40501;SDS011;29631;49.168;9.848;2023-10-09T13:24:17;7.75;;;3.80;;
40501;SDS011;29631;49.168;9.848;2023-10-09T13:26:43;7.82;;;4.20;;
40501;SDS011;29631;49.168;9.848;2023-10-09T13:29:11;5.43;;;4.05;;
40501;SDS011;29631;49.168;9.848;2023-10-09T13:31:38;8.13;;;4.25;;
40501;SDS011;29631;49.168;9.848;2023-10-09T13:34:11;10.48;;;4.43;;
40501;SDS011;29631;49.168;9.848;2023-10-09T13:36:40;8.15;;;4.80;;
40501;SDS011;29631;49.168;9.848;2023-10-09T13:39:15;6.45;;;4.18;;
40501;SDS011;29631;49.168;9.848;2023-10-09T13:41:51;6.45;;;3.90;;
40501;SDS011;29631;49.168;9.848;2023-10-09T13:44:25;8.10;;;4.13;;
40501;SDS011;29631;49.168;9.848;2023-10-09T13:46:55;6.72;;;4.07;;
40501;SDS011;29631;49.168;9.848;2023-10-09T13:49:21;8.35;;;4.00;;
40501;SDS011;29631;49.168;9.848;2023-10-09T13:51:48;4.75;;;3.83;;
40501;SDS011;29631;49.168;9.848;2023-10-09T13:54:15;11.35;;;4.45;;
40501;SDS011;29631;49.168;9.848;2023-10-09T13:57:07;9.00;;;4.72;;
40501;SDS011;29631;49.168;9.848;2023-10-09T13:59:36;8.70;;;4.07;;
40501;SDS011;29631;49.168;9.848;2023-10-09T14:02:07;8.45;;;4.03;;
40501;SDS011;29631;49.168;9.848;2023-10-09T14:04:41;6.32;;;3.95;;
40501;SDS011;29631;49.168;9.848;2023-10-09T14:07:08;7.05;;;4.28;;
40501;SDS011;29631;49.168;9.848;2023-10-09T14:09:34;8.48;;;4.05;;
40501;SDS011;29631;49.168;9.848;2023-10-09T14:12:03;5.32;;;3.90;;
40501;SDS011;29631;49.168;9.848;2023-10-09T14:14:39;7.60;;;4.50;;
40501;SDS011;29631;49.168;9.848;2023-10-09T14:17:12;6.25;;;4.07;;
40501;SDS011;29631;49.168;9.848;2023-10-09T14:19:39;7.07;;;4.07;;
40501;SDS011;29631;49.168;9.848;2023-10-09T14:22:11;8.93;;;5.00;;
40501;SDS011;29631;49.168;9.848;2023-10-09T14:24:41;8.23;;;4.70;;
40501;SDS011;29631;49.168;9.848;2023-10-09T14:27:12;8.25;;;5.13;;
40501;SDS011;29631;49.168;9.848;2023-10-09T14:29:44;5.95;;;4.60;;
40501;SDS011;29631;49.168;9.848;2023-10-09T14:32:11;12.90;;;7.35;;
40501;SDS011;29631;49.168;9.848;2023-10-09T14:34:40;10.82;;;5.93;;
40501;SDS011;29631;49.168;9.848;2023-10-09T14:37:11;7.95;;;4.80;;
40501;SDS011;29631;49.168;9.848;2023-10-09T14:39:40;10.90;;;5.00;;
40501;SDS011;29631;49.168;9.848;2023-10-09T14:42:13;7.18;;;4.80;;
40501;SDS011;29631;49.168;9.848;2023-10-09T14:44:43;7.95;;;4.47;;
40501;SDS011;29631;49.168;9.848;2023-10-09T14:47:12;6.35;;;5.03;;
40501;SDS011;29631;49.168;9.848;2023-10-09T14:49:39;7.75;;;4.32;;
40501;SDS011;29631;49.168;9.848;2023-10-09T14:52:11;7.00;;;4.13;;
40501;SDS011;29631;49.168;9.848;2023-10-09T14:54:45;4.72;;;4.25;;
40501;SDS011;29631;49.168;9.848;2023-10-09T14:57:11;13.85;;;7.28;;
40501;SDS011;29631;49.168;9.848;2023-10-09T14:59:38;14.02;;;10.40;;
40501;SDS011;29631;49.168;9.848;2023-10-09T15:02:04;23.10;;;15.23;;
40501;SDS011;29631;49.168;9.848;2023-10-09T15:04:32;18.95;;;12.88;;
40501;SDS011;29631;49.168;9.848;2023-10-09T15:07:00;19.08;;;11.80;;
40501;SDS011;29631;49.168;9.848;2023-10-09T15:09:26;21.50;;;10.98;;
40501;SDS011;29631;49.168;9.848;2023-10-09T15:11:56;11.00;;;8.77;;
40501;SDS011;29631;49.168;9.848;2023-10-09T15:14:22;8.27;;;6.15;;
40501;SDS011;29631;49.168;9.848;2023-10-09T15:16:48;9.30;;;5.53;;
40501;SDS011;29631;49.168;9.848;2023-10-09T15:19:15;11.07;;;5.40;;
40501;SDS011;29631;49.168;9.848;2023-10-09T15:21:45;8.00;;;5.18;;
40501;SDS011;29631;49.168;9.848;2023-10-09T15:24:14;7.90;;;4.88;;
40501;SDS011;29631;49.168;9.848;2023-10-09T15:26:42;8.25;;;5.10;;
40501;SDS011;29631;49.168;9.848;2023-10-09T15:29:17;5.95;;;4.35;;
40501;SDS011;29631;49.168;9.848;2023-10-09T15:31:54;6.57;;;4.57;;
40501;SDS011;29631;49.168;9.848;2023-10-09T15:34:20;5.57;;;4.18;;
40501;SDS011;29631;49.168;9.848;2023-10-09T15:36:46;7.53;;;3.88;;
40501;SDS011;29631;49.168;9.848;2023-10-09T15:39:13;5.53;;;4.50;;
40501;SDS011;29631;49.168;9.848;2023-10-09T15:41:39;9.02;;;6.07;;
40501;SDS011;29631;49.168;9.848;2023-10-09T15:44:05;13.00;;;5.90;;
40501;SDS011;29631;49.168;9.848;2023-10-09T15:46:31;8.30;;;5.15;;
40501;SDS011;29631;49.168;9.848;2023-10-09T15:49:00;8.25;;;4.90;;
40501;SDS011;29631;49.168;9.848;2023-10-09T15:51:27;9.35;;;5.40;;